createdAt,value
2019-03-30T00:03:43.856Z,70.12
2019-03-30T00:06:10.783Z,70.21
2019-03-30T00:08:37.847Z,70.26
2019-03-30T00:11:04.816Z,70.17
2019-03-30T00:13:31.878Z,70.30
2019-03-30T00:15:58.898Z,70.22
2019-03-30T00:18:25.915Z,70.08
2019-03-30T00:20:52.953Z,70.11
2019-03-30T00:23:19.971Z,70.23
2019-03-30T00:25:47.207Z,70.16
2019-03-30T00:28:22.115Z,70.07
2019-03-30T00:30:49.156Z,70.68
2019-03-30T00:33:16.166Z,70.86
2019-03-30T00:35:43.198Z,70.81
2019-03-30T00:38:10.227Z,70.65
2019-03-30T00:40:37.288Z,70.56
2019-03-30T00:43:04.314Z,70.58
2019-03-30T00:45:31.361Z,70.56
2019-03-30T00:47:58.372Z,70.79
2019-03-30T00:50:25.413Z,70.84
2019-03-30T00:52:52.430Z,70.75
2019-03-30T00:55:19.293Z,70.70
2019-03-30T00:57:46.218Z,70.83
2019-03-30T01:00:13.246Z,71.14
2019-03-30T01:02:40.283Z,71.30
2019-03-30T01:05:07.307Z,71.42
2019-03-30T01:07:34.315Z,71.43
2019-03-30T01:10:01.351Z,71.24
2019-03-30T01:12:28.367Z,71.19
2019-03-30T01:14:55.375Z,71.20
2019-03-30T01:17:22.383Z,71.16
2019-03-30T01:20:02.367Z,71.02
2019-03-30T01:22:28.107Z,71.18
2019-03-30T01:24:55.126Z,71.14
2019-03-30T01:27:22.145Z,71.16
2019-03-30T01:29:49.168Z,71.21
2019-03-30T01:32:16.207Z,71.18
2019-03-30T01:34:43.135Z,71.08
2019-03-30T01:37:10.164Z,71.15
2019-03-30T01:39:37.187Z,71.23
2019-03-30T01:42:04.376Z,71.00
2019-03-30T01:44:31.387Z,71.04
2019-03-30T01:46:58.398Z,71.09
2019-03-30T01:49:25.430Z,70.88
2019-03-30T01:51:52.498Z,71.03
2019-03-30T01:54:19.520Z,71.33
2019-03-30T01:56:46.546Z,71.27
2019-03-30T01:59:13.566Z,71.37
2019-03-30T02:01:40.590Z,71.41
2019-03-30T02:04:07.597Z,71.32
2019-03-30T02:06:34.617Z,71.24
2019-03-30T02:09:01.643Z,71.34
2019-03-30T02:11:28.660Z,71.45
2019-03-30T02:13:55.683Z,71.43
2019-03-30T02:16:22.699Z,71.38
2019-03-30T02:18:49.740Z,71.36
2019-03-30T02:21:16.776Z,71.28
2019-03-30T02:23:43.809Z,71.46
2019-03-30T02:26:10.819Z,71.49
2019-03-30T02:28:37.829Z,71.62
2019-03-30T02:31:04.847Z,71.92
2019-03-30T02:33:31.852Z,72.05
2019-03-30T02:35:59.025Z,71.89
2019-03-30T02:38:26.092Z,71.81
2019-03-30T02:40:53.136Z,71.84
2019-03-30T02:43:20.153Z,72.04
2019-03-30T02:45:47.290Z,72.16
2019-03-30T02:48:14.297Z,71.99
2019-03-30T02:50:49.957Z,72.02
2019-03-30T02:53:16.230Z,71.98
2019-03-30T02:55:43.258Z,71.81
2019-03-30T02:58:10.276Z,71.78
2019-03-30T03:00:37.315Z,71.65
2019-03-30T03:03:04.355Z,71.47
2019-03-30T03:05:31.371Z,71.56
2019-03-30T03:07:58.417Z,71.57
2019-03-30T03:10:25.532Z,71.48
2019-03-30T03:12:52.563Z,71.37
2019-03-30T03:15:19.591Z,71.32
2019-03-30T03:17:46.527Z,71.43
2019-03-30T03:20:13.545Z,71.75
2019-03-30T03:22:40.564Z,72.17
2019-03-30T03:25:07.724Z,72.23
2019-03-30T03:27:34.823Z,72.26
2019-03-30T03:30:01.868Z,72.27
2019-03-30T03:32:28.916Z,71.97
2019-03-30T03:34:55.868Z,72.06
2019-03-30T03:37:22.815Z,71.93
2019-03-30T03:39:49.839Z,72.05
2019-03-30T03:42:16.864Z,72.13
2019-03-30T03:44:43.876Z,72.03
2019-03-30T03:47:10.887Z,72.03
2019-03-30T03:49:37.944Z,72.10
2019-03-30T03:52:04.948Z,71.98
2019-03-30T03:54:31.994Z,71.99
2019-03-30T03:56:59.018Z,72.17
2019-03-30T03:59:26.155Z,72.17
2019-03-30T04:01:53.156Z,72.19
2019-03-30T04:04:32.468Z,72.40
2019-03-30T04:10:00.528Z,73.51
2019-03-30T04:12:35.606Z,73.40
2019-03-30T04:15:02.662Z,73.18
2019-03-30T04:17:29.684Z,73.52
2019-03-30T04:19:56.732Z,73.58
2019-03-30T04:22:23.795Z,73.58
2019-03-30T04:24:50.688Z,73.58
2019-03-30T04:27:17.805Z,73.57
2019-03-30T04:29:44.820Z,73.47
2019-03-30T04:32:11.872Z,73.29
2019-03-30T04:34:38.908Z,73.19
2019-03-30T04:37:06.069Z,73.31
2019-03-30T04:39:33.069Z,73.30
2019-03-30T04:42:00.121Z,72.98
2019-03-30T04:44:27.141Z,73.16
2019-03-30T04:46:54.184Z,73.25
2019-03-30T04:49:21.206Z,73.10
2019-03-30T04:51:57.412Z,73.42
2019-03-30T04:54:23.043Z,73.55
2019-03-30T04:56:50.072Z,73.52
2019-03-30T04:59:17.087Z,73.38
2019-03-30T05:01:44.119Z,73.29
2019-03-30T05:04:11.146Z,73.30
2019-03-30T05:06:38.176Z,73.42
2019-03-30T05:09:05.578Z,73.37
2019-03-30T05:11:32.586Z,73.24
2019-03-30T05:13:59.603Z,73.21
2019-03-30T05:16:26.631Z,73.12
2019-03-30T05:18:53.675Z,73.10
2019-03-30T05:21:20.690Z,73.01
2019-03-30T05:23:47.712Z,73.20
2019-03-30T05:26:14.736Z,73.12
2019-03-30T05:28:41.755Z,73.11
2019-03-30T05:31:08.773Z,73.08
2019-03-30T05:33:35.797Z,73.26
2019-03-30T05:36:02.876Z,73.25
2019-03-30T05:38:29.912Z,73.47
2019-03-30T05:40:56.939Z,73.65
2019-03-30T05:43:23.985Z,73.67
2019-03-30T05:45:51.029Z,73.82
2019-03-30T05:48:17.943Z,77.67
2019-03-30T05:50:44.951Z,76.87
2019-03-30T05:53:11.981Z,75.40
2019-03-30T05:55:38.996Z,77.53
2019-03-30T05:58:06.025Z,78.08
2019-03-30T06:00:33.107Z,76.42
2019-03-30T06:03:00.129Z,74.98
2019-03-30T06:05:27.185Z,69.25
2019-03-30T06:07:54.211Z,67.53
2019-03-30T06:10:21.078Z,67.43
2019-03-30T06:12:48.123Z,68.80
2019-03-30T06:15:15.130Z,70.19
2019-03-30T06:17:42.378Z,68.44
2019-03-30T06:23:10.968Z,66.46
2019-03-30T06:25:38.000Z,65.54
2019-03-30T06:28:05.004Z,66.09
2019-03-30T06:30:32.034Z,66.80
2019-03-30T06:32:59.057Z,65.59
2019-03-30T06:35:26.090Z,64.14
2019-03-30T06:37:53.103Z,62.92
2019-03-30T06:40:22.848Z,62.69
2019-03-30T06:42:49.880Z,62.77
2019-03-30T06:45:16.932Z,62.68
2019-03-30T06:47:43.951Z,62.16
2019-03-30T06:50:10.990Z,62.32
2019-03-30T06:52:41.275Z,63.10
2019-03-30T06:55:35.750Z,64.06
2019-03-30T06:58:02.770Z,64.87
2019-03-30T07:00:49.036Z,65.83
2019-03-30T07:03:16.068Z,66.49
2019-03-30T07:05:43.226Z,67.12
2019-03-30T07:08:29.494Z,67.44
2019-03-30T07:10:56.550Z,67.70
2019-03-30T07:13:23.556Z,67.99
2019-03-30T07:15:50.610Z,68.40
2019-03-30T07:21:25.389Z,68.37
2019-03-30T07:23:52.401Z,68.24
2019-03-30T07:26:19.439Z,67.92
2019-03-30T07:28:47.349Z,67.55
2019-03-30T07:31:21.741Z,67.23
2019-03-30T07:33:48.763Z,67.31
2019-03-30T07:36:15.699Z,67.68
2019-03-30T07:38:42.717Z,69.02
2019-03-30T07:41:09.751Z,68.41
2019-03-30T07:43:36.790Z,67.38
2019-03-30T07:46:03.806Z,67.25
2019-03-30T07:48:30.840Z,67.60
2019-03-30T07:50:57.865Z,67.77
2019-03-30T07:53:26.768Z,67.30
2019-03-30T07:56:08.777Z,67.64
2019-03-30T07:58:38.700Z,67.27
2019-03-30T08:01:05.731Z,66.49
2019-03-30T08:03:32.768Z,66.13
2019-03-30T08:05:59.796Z,65.52
2019-03-30T08:08:26.825Z,64.97
2019-03-30T08:10:53.869Z,64.69
2019-03-30T08:13:20.867Z,64.46
2019-03-30T08:15:47.926Z,64.21
2019-03-30T08:18:14.959Z,63.77
2019-03-30T08:20:42.003Z,63.68
2019-03-30T08:23:09.014Z,63.70
2019-03-30T08:25:36.051Z,63.52
2019-03-30T08:28:03.086Z,63.55
2019-03-30T08:30:30.132Z,63.00
2019-03-30T08:32:57.144Z,63.18
2019-03-30T08:35:24.206Z,63.07
2019-03-30T08:37:51.214Z,62.95
2019-03-30T08:40:31.101Z,63.12
2019-03-30T08:42:58.192Z,62.31
2019-03-30T08:45:25.204Z,62.09
2019-03-30T08:47:52.242Z,61.85
2019-03-30T08:50:19.275Z,61.82
2019-03-30T08:52:46.299Z,61.47
2019-03-30T08:57:53.571Z,61.08
2019-03-30T09:00:39.820Z,60.14
2019-03-30T09:03:06.877Z,59.38
2019-03-30T09:05:33.918Z,58.46
2019-03-30T09:08:00.951Z,58.25
2019-03-30T09:10:27.976Z,57.85
2019-03-30T09:12:55.018Z,57.27
2019-03-30T09:15:22.048Z,56.00
2019-03-30T09:17:49.105Z,55.81
2019-03-30T09:20:16.138Z,55.73
2019-03-30T09:22:43.156Z,55.73
2019-03-30T09:25:13.462Z,55.35
2019-03-30T09:27:40.888Z,54.70
2019-03-30T09:30:20.123Z,54.00
2019-03-30T09:32:47.204Z,52.82
2019-03-30T09:35:14.210Z,52.79
2019-03-30T09:37:41.137Z,51.85
2019-03-30T09:40:08.146Z,51.30
2019-03-30T09:42:35.183Z,51.23
2019-03-30T09:45:02.220Z,50.14
2019-03-30T09:47:29.231Z,50.60
2019-03-30T09:49:56.260Z,49.40
2019-03-30T09:52:23.279Z,49.59
2019-03-30T09:54:50.347Z,49.83
2019-03-30T09:57:17.397Z,49.55
2019-03-30T09:59:44.441Z,51.41
2019-03-30T10:02:11.513Z,51.35
2019-03-30T10:04:38.547Z,50.31
2019-03-30T10:07:05.569Z,48.71
2019-03-30T10:09:32.591Z,47.33
2019-03-30T10:11:59.605Z,46.90
2019-03-30T10:14:26.631Z,46.64
2019-03-30T10:16:53.696Z,45.89
2019-03-30T10:19:20.723Z,47.33
2019-03-30T10:21:47.723Z,46.33
2019-03-30T10:24:14.783Z,45.31
2019-03-30T10:26:41.817Z,45.63
2019-03-30T10:29:08.881Z,44.56
2019-03-30T10:31:35.901Z,42.19
2019-03-30T10:34:02.936Z,41.32
2019-03-30T10:36:29.967Z,42.06
2019-03-30T10:38:56.981Z,40.72
2019-03-30T10:41:24.044Z,38.55
2019-03-30T10:43:51.072Z,39.29
2019-03-30T10:46:18.118Z,36.98
2019-03-30T10:48:45.135Z,37.49
2019-03-30T10:51:12.191Z,35.92
2019-03-30T10:53:39.220Z,35.66
2019-03-30T10:56:06.239Z,34.70
2019-03-30T10:58:33.286Z,35.03
2019-03-30T11:01:00.314Z,34.12
2019-03-30T11:03:27.237Z,34.65
2019-03-30T11:05:54.264Z,34.53
2019-03-30T11:08:21.279Z,34.33
2019-03-30T11:10:48.322Z,33.51
2019-03-30T11:13:15.369Z,33.27
2019-03-30T11:15:42.403Z,32.65
2019-03-30T11:18:09.342Z,31.98
2019-03-30T11:20:36.379Z,32.34
2019-03-30T11:23:03.427Z,31.30
2019-03-30T11:25:30.444Z,31.94
2019-03-30T11:27:57.508Z,30.91
2019-03-30T11:30:24.536Z,31.59
2019-03-30T11:32:51.550Z,31.59
2019-03-30T11:35:18.575Z,30.43
2019-03-30T11:37:45.571Z,31.39
2019-03-30T11:40:12.613Z,29.67
2019-03-30T11:42:39.644Z,29.67
2019-03-30T11:45:06.691Z,29.69
2019-03-30T11:47:33.724Z,29.43
2019-03-30T11:50:00.753Z,29.18
2019-03-30T11:52:27.878Z,29.01
2019-03-30T11:54:54.894Z,29.26
2019-03-30T11:57:21.923Z,28.97
2019-03-30T11:59:48.815Z,27.54
2019-03-30T12:02:27.252Z,28.35
2019-03-30T12:04:51.097Z,28.15
2019-03-30T12:07:18.129Z,27.76
2019-03-30T12:12:11.435Z,26.61
2019-03-30T12:14:38.466Z,26.96
2019-03-30T12:17:05.519Z,27.45
2019-03-30T12:19:32.553Z,27.89
2019-03-30T12:21:59.589Z,27.37
2019-03-30T12:24:26.634Z,26.96
2019-03-30T12:26:55.532Z,25.74
2019-03-30T12:29:28.471Z,25.32
2019-03-30T12:31:55.506Z,25.77
2019-03-30T12:34:22.571Z,25.76
2019-03-30T12:36:49.603Z,25.58
2019-03-30T12:39:16.658Z,23.70
2019-03-30T12:41:43.642Z,24.06
2019-03-30T12:44:10.614Z,24.90
2019-03-30T12:46:37.557Z,25.48
2019-03-30T12:49:04.437Z,25.46
2019-03-30T12:51:31.342Z,24.75
2019-03-30T12:53:58.232Z,24.78
2019-03-30T12:56:25.196Z,26.26
2019-03-30T12:58:52.069Z,24.86
2019-03-30T13:01:18.949Z,25.45
2019-03-30T13:03:45.837Z,24.66
2019-03-30T13:06:12.811Z,24.22
2019-03-30T13:08:39.785Z,24.25
2019-03-30T13:11:06.757Z,24.61
2019-03-30T13:13:33.753Z,24.85
2019-03-30T13:16:00.801Z,24.01
2019-03-30T13:18:27.760Z,24.63
2019-03-30T13:20:54.749Z,23.94
2019-03-30T13:23:21.737Z,24.58
2019-03-30T13:26:02.545Z,23.39
2019-03-30T13:28:17.492Z,23.62
2019-03-30T13:30:44.366Z,23.91
2019-03-30T13:33:11.277Z,24.85
2019-03-30T13:35:38.149Z,24.50
2019-03-30T13:38:05.063Z,24.14
2019-03-30T13:40:32.123Z,23.75
2019-03-30T13:42:59.128Z,23.87
2019-03-30T13:45:26.102Z,24.18
2019-03-30T13:47:52.991Z,24.16
2019-03-30T13:50:19.958Z,23.94
2019-03-30T13:52:46.937Z,24.08
2019-03-30T13:55:13.913Z,23.38
2019-03-30T13:57:40.904Z,23.70
2019-03-30T14:00:07.995Z,23.83
2019-03-30T14:02:34.984Z,23.03
2019-03-30T14:05:01.895Z,23.22
2019-03-30T14:07:28.873Z,22.71
2019-03-30T14:09:55.961Z,22.86
2019-03-30T14:12:22.846Z,22.33
2019-03-30T14:14:49.892Z,22.67
2019-03-30T14:17:20.018Z,23.45
2019-03-30T14:19:45.664Z,23.69
2019-03-30T14:22:12.542Z,23.93
2019-03-30T14:24:39.432Z,24.33
2019-03-30T14:27:06.397Z,24.29
2019-03-30T14:29:33.247Z,24.89
2019-03-30T14:32:00.137Z,26.10
2019-03-30T14:34:27.020Z,25.66
2019-03-30T14:36:53.894Z,25.28
2019-03-30T14:39:20.879Z,24.74
2019-03-30T14:41:47.866Z,25.58
2019-03-30T14:44:14.747Z,26.26
2019-03-30T14:46:41.620Z,26.95
2019-03-30T14:49:08.429Z,27.61
2019-03-30T14:51:35.298Z,28.12
2019-03-30T14:54:02.417Z,28.24
2019-03-30T14:56:29.376Z,27.83
2019-03-30T14:59:09.482Z,28.09
2019-03-30T15:01:25.070Z,27.79
2019-03-30T15:03:52.071Z,27.74
2019-03-30T15:06:19.035Z,27.04
2019-03-30T15:08:46.035Z,26.85
2019-03-30T15:11:12.905Z,25.68
2019-03-30T15:13:39.839Z,25.58
2019-03-30T15:16:06.731Z,25.72
2019-03-30T15:18:33.636Z,26.17
2019-03-30T15:21:00.492Z,26.34
2019-03-30T15:23:27.387Z,26.87
2019-03-30T15:25:54.362Z,28.29
2019-03-30T15:28:21.339Z,27.99
2019-03-30T15:30:48.347Z,27.90
2019-03-30T15:33:15.321Z,27.09
2019-03-30T15:35:42.184Z,27.03
2019-03-30T15:38:09.101Z,26.41
2019-03-30T15:40:36.091Z,26.23
2019-03-30T15:43:02.985Z,26.08
2019-03-30T15:45:29.989Z,26.19
2019-03-30T15:47:56.873Z,25.75
2019-03-30T15:50:23.855Z,25.77
2019-03-30T15:52:50.849Z,26.69
2019-03-30T15:55:17.854Z,26.73
2019-03-30T15:57:44.845Z,26.09
2019-03-30T16:00:11.773Z,25.20
2019-03-30T16:02:38.671Z,25.53
2019-03-30T16:05:06.181Z,24.96
2019-03-30T16:07:33.236Z,24.34
2019-03-30T16:10:00.142Z,24.63
2019-03-30T16:12:27.113Z,24.39
2019-03-30T16:14:54.016Z,24.65
2019-03-30T16:17:21.025Z,25.19
2019-03-30T16:19:48.021Z,26.19
2019-03-30T16:22:15.040Z,26.08
2019-03-30T16:24:42.073Z,26.08
2019-03-30T16:27:08.974Z,25.74
2019-03-30T16:29:36.004Z,26.87
2019-03-30T16:32:03.009Z,27.44
2019-03-30T16:34:29.976Z,27.61
2019-03-30T16:36:56.866Z,27.70
2019-03-30T16:39:23.876Z,28.62
2019-03-30T16:41:50.817Z,29.01
2019-03-30T16:44:17.813Z,29.74
2019-03-30T16:46:44.810Z,30.55
2019-03-30T16:49:11.723Z,31.62
2019-03-30T16:51:38.698Z,32.68
2019-03-30T16:54:05.557Z,33.17
2019-03-30T16:56:32.483Z,33.91
2019-03-30T16:58:59.491Z,33.83
2019-03-30T17:01:26.466Z,34.41
2019-03-30T17:03:53.430Z,35.10
2019-03-30T17:06:20.344Z,35.76
2019-03-30T17:08:47.359Z,36.38
2019-03-30T17:11:14.377Z,36.65
2019-03-30T17:13:41.384Z,37.06
2019-03-30T17:16:08.549Z,37.19
2019-03-30T17:18:35.545Z,37.77
2019-03-30T17:21:02.562Z,38.70
2019-03-30T17:23:29.458Z,40.58
2019-03-30T17:25:56.461Z,41.10
2019-03-30T17:28:23.435Z,40.92
2019-03-30T17:30:50.422Z,40.59
2019-03-30T17:33:17.379Z,42.20
2019-03-30T17:35:44.363Z,44.40
2019-03-30T17:38:11.350Z,45.28
2019-03-30T17:40:38.367Z,46.00
2019-03-30T17:43:05.345Z,46.88
2019-03-30T17:45:32.228Z,47.82
2019-03-30T17:47:59.100Z,47.43
2019-03-30T17:50:25.995Z,46.93
2019-03-30T17:52:52.853Z,47.50
2019-03-30T17:55:32.974Z,48.39
2019-03-30T17:57:48.543Z,49.13
2019-03-30T18:00:16.639Z,48.58
2019-03-30T18:02:43.589Z,49.16
2019-03-30T18:05:10.532Z,48.71
2019-03-30T18:07:37.327Z,48.90
2019-03-30T18:10:04.490Z,48.57
2019-03-30T18:12:31.465Z,48.57
2019-03-30T18:14:58.363Z,48.60
2019-03-30T18:17:25.365Z,49.01
2019-03-30T18:19:52.273Z,49.45
2019-03-30T18:22:19.229Z,50.00
2019-03-30T18:24:46.107Z,50.08
2019-03-30T18:27:13.105Z,50.73
2019-03-30T18:29:40.011Z,51.06
2019-03-30T18:32:06.897Z,51.86
2019-03-30T18:34:33.787Z,51.97
2019-03-30T18:37:00.815Z,52.10
2019-03-30T18:39:28.118Z,52.25
2019-03-30T18:41:55.017Z,52.42
2019-03-30T18:44:22.005Z,52.50
2019-03-30T18:46:48.889Z,52.76
2019-03-30T18:49:15.818Z,53.53
2019-03-30T18:51:42.798Z,53.98
2019-03-30T18:54:09.689Z,54.65
2019-03-30T18:56:36.660Z,54.56
2019-03-30T18:59:03.672Z,54.71
2019-03-30T19:01:30.574Z,55.01
2019-03-30T19:03:57.532Z,54.35
2019-03-30T19:06:24.609Z,54.72
2019-03-30T19:08:51.587Z,54.73
2019-03-30T19:11:18.602Z,54.82
2019-03-30T19:13:45.593Z,55.08
2019-03-30T19:16:12.577Z,55.50
2019-03-30T19:18:39.515Z,55.67
2019-03-30T19:21:06.530Z,55.94
2019-03-30T19:23:33.453Z,55.92
2019-03-30T19:26:00.429Z,56.18
2019-03-30T19:28:27.546Z,56.49
2019-03-30T19:30:54.565Z,56.66
2019-03-30T19:33:21.592Z,56.66
2019-03-30T19:35:48.596Z,56.64
2019-03-30T19:38:15.590Z,56.69
2019-03-30T19:40:42.604Z,57.38
2019-03-30T19:43:09.569Z,57.50
2019-03-30T19:45:36.490Z,57.90
2019-03-30T19:48:03.464Z,57.79
2019-03-30T19:50:30.459Z,57.65
2019-03-30T19:52:57.430Z,57.92
2019-03-30T19:55:24.332Z,58.01
2019-03-30T19:57:51.318Z,57.87
2019-03-30T20:00:18.214Z,58.19
2019-03-30T20:02:45.185Z,58.41
2019-03-30T20:05:12.177Z,58.69
2019-03-30T20:07:39.155Z,58.81
2019-03-30T20:10:06.070Z,58.93
2019-03-30T20:12:33.056Z,59.41
2019-03-30T20:14:59.940Z,59.61
2019-03-30T20:17:26.831Z,60.17
2019-03-30T20:19:53.790Z,60.32
2019-03-30T20:22:20.690Z,60.29
2019-03-30T20:24:47.607Z,60.16
2019-03-30T20:27:14.613Z,60.17
2019-03-30T20:29:41.515Z,60.31
2019-03-30T20:32:08.428Z,60.17
2019-03-30T20:34:35.394Z,60.20
2019-03-30T20:37:02.282Z,60.14
2019-03-30T20:39:29.145Z,60.12
2019-03-30T20:41:56.059Z,60.09
2019-03-30T20:44:23.016Z,60.07
2019-03-30T20:46:49.942Z,60.22
2019-03-30T20:49:16.903Z,60.48
2019-03-30T20:51:43.783Z,60.80
2019-03-30T20:54:10.649Z,61.05
2019-03-30T20:56:37.618Z,61.18
2019-03-30T20:59:04.501Z,61.36
2019-03-30T21:01:31.391Z,61.48
2019-03-30T21:03:58.365Z,61.44
2019-03-30T21:06:25.247Z,61.53
2019-03-30T21:08:52.157Z,61.64
2019-03-30T21:11:19.028Z,61.62
2019-03-30T21:13:46.004Z,61.82
2019-03-30T21:16:12.911Z,61.93
2019-03-30T21:18:39.930Z,61.93
2019-03-30T21:21:09.141Z,61.87
2019-03-30T21:23:35.619Z,61.99
2019-03-30T21:26:02.496Z,62.09
2019-03-30T21:28:29.399Z,62.20
2019-03-30T21:30:56.341Z,62.34
2019-03-30T21:33:23.229Z,62.79
2019-03-30T21:35:50.112Z,63.06
2019-03-30T21:38:17.080Z,63.09
2019-03-30T21:40:43.964Z,63.27
2019-03-30T21:43:10.924Z,63.39
2019-03-30T21:45:37.811Z,63.44
2019-03-30T21:48:04.683Z,63.42
2019-03-30T21:50:31.673Z,63.51
2019-03-30T21:52:58.665Z,63.58
2019-03-30T21:55:25.668Z,63.85
2019-03-30T21:57:52.574Z,64.02
2019-03-30T22:00:32.792Z,64.03
2019-03-30T22:02:59.664Z,63.97
2019-03-30T22:05:26.565Z,63.89
2019-03-30T22:07:53.545Z,64.13
2019-03-30T22:10:26.263Z,64.45
2019-03-30T22:12:53.158Z,64.60
2019-03-30T22:15:21.939Z,64.65
2019-03-30T22:17:48.812Z,64.73
2019-03-30T22:20:15.785Z,64.96
2019-03-30T22:22:42.789Z,65.10
2019-03-30T22:25:12.093Z,65.15
2019-03-30T22:27:39.459Z,65.11
2019-03-30T22:30:06.376Z,65.16
2019-03-30T22:32:33.439Z,65.20
2019-03-30T22:35:00.425Z,65.34
2019-03-30T22:37:27.350Z,65.49
2019-03-30T22:39:54.409Z,65.68
2019-03-30T22:42:21.333Z,65.74
2019-03-30T22:44:48.193Z,65.78
2019-03-30T22:47:15.079Z,65.80
2019-03-30T22:49:41.973Z,65.81
2019-03-30T22:52:08.891Z,66.10
2019-03-30T22:54:35.766Z,66.27
2019-03-30T22:57:02.633Z,66.51
2019-03-30T22:59:29.516Z,66.81
2019-03-30T23:01:56.372Z,67.04
2019-03-30T23:04:23.270Z,67.17
2019-03-30T23:06:50.216Z,67.32
2019-03-30T23:09:17.173Z,67.56
2019-03-30T23:11:44.052Z,67.63
2019-03-30T23:14:10.923Z,67.69
2019-03-30T23:16:37.776Z,67.58
2019-03-30T23:19:04.669Z,67.67
2019-03-30T23:21:31.555Z,67.86
2019-03-30T23:23:59.405Z,67.96
2019-03-30T23:26:26.286Z,68.11
2019-03-30T23:28:53.156Z,68.35
2019-03-30T23:31:20.028Z,68.47
2019-03-30T23:33:47.000Z,68.37
2019-03-30T23:36:13.894Z,68.19
2019-03-30T23:38:40.904Z,68.17
2019-03-30T23:41:07.798Z,68.37
2019-03-30T23:43:34.763Z,68.54
2019-03-30T23:46:01.608Z,68.76
2019-03-30T23:48:28.466Z,68.77
2019-03-30T23:50:55.327Z,68.70
2019-03-30T23:53:22.226Z,68.69
2019-03-30T23:55:49.095Z,68.59
2019-03-30T23:58:15.960Z,68.63
